Time;durP1;ratioP1;P1;durP2;ratioP2;P2;SDS_P1;SDS_P2;PMS_P1;PMS_P2;Temp;Humidity;BMP_temperature;BMP_pressure;BME280_temperature;BME280_humidity;BME280_pressure;Samples;Min_cycle;Max_cycle;Signal;HPM_P1;HPM_P2
2024/03/29 00:00:59;;;;;;;20.00;4.75;;;;;;;;;;4990880;28;20033;-81
2024/03/29 00:03:27;;;;;;;17.85;4.28;;;;;;;;;;4993169;28;20041;-80
2024/03/29 00:05:55;;;;;;;18.58;4.35;;;;;;;;;;4992365;28;20551;-79
2024/03/29 00:08:23;;;;;;;18.83;4.38;;;;;;;;;;4991638;28;20823;-78
2024/03/29 00:10:49;;;;;;;21.15;4.90;;;;;;;;;;4991245;28;20049;-80
2024/03/29 00:13:15;;;;;;;;;;;;;;;;;;4995177;28;20061;-79
2024/03/29 00:15:43;;;;;;;17.08;4.38;;;;;;;;;;4990053;28;20490;-79
2024/03/29 00:18:11;;;;;;;15.38;4.22;;;;;;;;;;4994997;28;20026;-81
2024/03/29 00:20:37;;;;;;;19.27;4.25;;;;;;;;;;4989207;28;20026;-81
2024/03/29 00:23:06;;;;;;;20.83;4.22;;;;;;;;;;4992325;28;20018;-81
2024/03/29 00:25:34;;;;;;;18.27;4.53;;;;;;;;;;4989249;28;20033;-81
2024/03/29 00:28:01;;;;;;;16.98;4.45;;;;;;;;;;5003483;28;20033;-80
2024/03/29 00:30:29;;;;;;;19.52;4.53;;;;;;;;;;5000025;28;20035;-79
2024/03/29 00:32:56;;;;;;;20.90;6.07;;;;;;;;;;5002405;28;20049;-81
2024/03/29 00:35:25;;;;;;;18.30;4.22;;;;;;;;;;5007685;28;20025;-81
2024/03/29 00:37:54;;;;;;;18.77;4.50;;;;;;;;;;5005165;28;20156;-80
2024/03/29 00:40:21;;;;;;;17.10;4.47;;;;;;;;;;5007054;28;20033;-81
2024/03/29 00:42:47;;;;;;;16.77;4.70;;;;;;;;;;4994973;28;20855;-81
2024/03/29 00:45:15;;;;;;;16.58;4.75;;;;;;;;;;4996618;28;20118;-81
2024/03/29 00:47:41;;;;;;;14.30;4.20;;;;;;;;;;4988762;28;20030;-81
2024/03/29 00:50:09;;;;;;;19.38;8.68;;;;;;;;;;4995313;28;20033;-80
2024/03/29 00:52:37;;;;;;;21.23;4.53;;;;;;;;;;4980825;28;20033;-81
2024/03/29 00:55:05;;;;;;;19.77;4.30;;;;;;;;;;4990394;28;20670;-80
2024/03/29 00:57:31;;;;;;;18.40;4.63;;;;;;;;;;4992947;28;20052;-80
2024/03/29 00:59:58;;;;;;;;;;;;;;;;;;4994069;28;20080;-80
2024/03/29 01:02:27;;;;;;;17.73;5.82;;;;;;;;;;4997127;28;19913;-80
2024/03/29 01:04:54;;;;;;;16.50;4.57;;;;;;;;;;4982422;28;20034;-80
2024/03/29 01:07:23;;;;;;;16.75;3.97;;;;;;;;;;4990939;28;20128;-80
2024/03/29 01:09:49;;;;;;;21.98;4.90;;;;;;;;;;4989360;28;20128;-80
2024/03/29 01:12:16;;;;;;;16.55;4.30;;;;;;;;;;4988881;28;20100;-80
2024/03/29 01:14:44;;;;;;;20.75;4.28;;;;;;;;;;4988244;28;20033;-79
2024/03/29 01:17:11;;;;;;;18.17;4.47;;;;;;;;;;4988184;28;20029;-79
2024/03/29 01:19:37;;;;;;;18.48;5.13;;;;;;;;;;4985389;28;20749;-79
2024/03/29 01:22:06;;;;;;;18.15;5.05;;;;;;;;;;4991268;28;20682;-79
2024/03/29 01:24:32;;;;;;;15.05;4.57;;;;;;;;;;4984014;28;20102;-80
2024/03/29 01:27:06;;;;;;;19.27;5.97;;;;;;;;;;4986389;28;20060;-79
2024/03/29 01:29:34;;;;;;;17.92;7.45;;;;;;;;;;4985073;28;20094;-79
2024/03/29 01:32:02;;;;;;;15.77;5.53;;;;;;;;;;4986588;28;20042;-79
2024/03/29 01:34:31;;;;;;;17.95;6.47;;;;;;;;;;4990479;28;20033;-79
2024/03/29 01:36:57;;;;;;;19.73;5.93;;;;;;;;;;4986311;28;20108;-79
2024/03/29 01:39:28;;;;;;;;;;;;;;;;;;4983097;28;20034;-79
2024/03/29 01:41:55;;;;;;;17.73;5.15;;;;;;;;;;4986142;28;20447;-79
2024/03/29 01:44:20;;;;;;;;;;;;;;;;;;4989785;28;20548;-79
2024/03/29 01:46:48;;;;;;;19.80;6.07;;;;;;;;;;4984382;28;19920;-79
2024/03/29 01:49:17;;;;;;;16.50;4.40;;;;;;;;;;4985554;28;20033;-79
2024/03/29 01:51:45;;;;;;;16.75;5.30;;;;;;;;;;4982475;28;20172;-80
2024/03/29 01:54:13;;;;;;;17.00;5.22;;;;;;;;;;4995988;28;20030;-79
2024/03/29 01:56:41;;;;;;;15.95;4.40;;;;;;;;;;4985119;28;20830;-79
2024/03/29 01:59:14;;;;;;;16.48;3.97;;;;;;;;;;4991426;28;20416;-79
2024/03/29 02:01:42;;;;;;;18.92;5.30;;;;;;;;;;4981557;28;20076;-79
2024/03/29 02:04:10;;;;;;;17.45;4.40;;;;;;;;;;4990222;28;20080;-79
2024/03/29 02:06:41;;;;;;;14.75;3.97;;;;;;;;;;4988250;28;20736;-80
2024/03/29 02:09:07;;;;;;;17.13;4.00;;;;;;;;;;4988797;28;20046;-79
2024/03/29 02:11:33;;;;;;;;;;;;;;;;;;4988390;28;20029;-79
2024/03/29 02:14:01;;;;;;;16.23;3.80;;;;;;;;;;5001983;28;19955;-79
2024/03/29 02:16:28;;;;;;;16.95;4.43;;;;;;;;;;4988328;28;20472;-79
2024/03/29 02:18:56;;;;;;;14.75;3.63;;;;;;;;;;4982784;28;20030;-79
2024/03/29 02:21:22;;;;;;;16.50;4.10;;;;;;;;;;4986726;28;20064;-79
2024/03/29 02:23:50;;;;;;;;;;;;;;;;;;4983487;28;21486;-79
2024/03/29 02:26:17;;;;;;;16.60;5.03;;;;;;;;;;4991624;28;19912;-79
2024/03/29 02:28:43;;;;;;;;;;;;;;;;;;4983552;28;20095;-79
2024/03/29 02:31:13;;;;;;;14.10;4.43;;;;;;;;;;4989091;28;20024;-81
2024/03/29 02:33:40;;;;;;;15.10;4.55;;;;;;;;;;4986394;28;20498;-79
2024/03/29 02:36:07;;;;;;;14.00;3.45;;;;;;;;;;4990357;28;20473;-80
2024/03/29 02:38:34;;;;;;;;;;;;;;;;;;5000748;28;20052;-79
2024/03/29 02:41:02;;;;;;;12.23;3.60;;;;;;;;;;5009640;28;19960;-80
2024/03/29 02:43:30;;;;;;;16.38;3.95;;;;;;;;;;5010796;28;20057;-80
2024/03/29 02:45:56;;;;;;;19.10;4.40;;;;;;;;;;4989130;28;20030;-79
2024/03/29 02:48:25;;;;;;;13.65;3.55;;;;;;;;;;4992260;28;20033;-79
2024/03/29 02:50:51;;;;;;;16.88;3.90;;;;;;;;;;4999233;28;20026;-79
2024/03/29 02:53:20;;;;;;;17.98;4.47;;;;;;;;;;4976610;28;20119;-79
2024/03/29 02:55:46;;;;;;;20.35;4.20;;;;;;;;;;4989727;28;20028;-79
2024/03/29 02:58:14;;;;;;;15.38;4.30;;;;;;;;;;4990009;28;20049;-80
2024/03/29 03:00:40;;;;;;;15.57;4.63;;;;;;;;;;4986469;28;20045;-80
2024/03/29 03:03:06;;;;;;;16.75;4.15;;;;;;;;;;4983126;28;20029;-80
2024/03/29 03:05:35;;;;;;;12.13;3.45;;;;;;;;;;4984654;28;20026;-78
2024/03/29 03:10:56;;;;;;;14.23;3.95;;;;;;;;;;4981635;28;20547;-79
2024/03/29 03:13:22;;;;;;;16.35;3.60;;;;;;;;;;4984776;28;20037;-78
2024/03/29 03:15:49;;;;;;;;;;;;;;;;;;4978883;28;20028;-79
2024/03/29 03:18:15;;;;;;;;;;;;;;;;;;4987145;28;19913;-78
2024/03/29 03:20:44;;;;;;;11.98;2.97;;;;;;;;;;4986250;28;20680;-78
2024/03/29 03:23:11;;;;;;;16.10;3.60;;;;;;;;;;4986433;28;20120;-79
2024/03/29 03:25:39;;;;;;;15.15;4.00;;;;;;;;;;4980371;28;20041;-80
2024/03/29 03:28:05;;;;;;;13.25;3.40;;;;;;;;;;4989600;28;20029;-80
2024/03/29 03:30:32;;;;;;;;;;;;;;;;;;4987557;28;20104;-79
2024/03/29 03:33:00;;;;;;;13.48;3.13;;;;;;;;;;4994788;28;20031;-79
2024/03/29 03:35:26;;;;;;;15.48;3.45;;;;;;;;;;4992179;28;20022;-79
2024/03/29 03:37:52;;;;;;;14.00;3.22;;;;;;;;;;4982539;28;20029;-79
2024/03/29 03:40:18;;;;;;;17.05;3.58;;;;;;;;;;4987775;28;20038;-80
2024/03/29 03:42:45;;;;;;;;;;;;;;;;;;4984347;28;20184;-79
2024/03/29 03:45:16;;;;;;;12.82;3.65;;;;;;;;;;4983384;28;19919;-79
2024/03/29 03:47:42;;;;;;;14.40;3.58;;;;;;;;;;4983256;28;20046;-80
2024/03/29 03:50:10;;;;;;;14.82;3.38;;;;;;;;;;4987009;28;20030;-80
2024/03/29 03:52:37;;;;;;;15.95;3.70;;;;;;;;;;4983834;28;20120;-79
2024/03/29 03:55:05;;;;;;;16.45;3.28;;;;;;;;;;4987002;28;20034;-79
2024/03/29 03:57:33;;;;;;;11.52;2.78;;;;;;;;;;4983871;28;20029;-81
2024/03/29 04:00:03;;;;;;;15.15;3.03;;;;;;;;;;4985174;28;20034;-80
2024/03/29 04:02:30;;;;;;;15.82;3.60;;;;;;;;;;4986150;28;20040;-79
2024/03/29 04:04:57;;;;;;;13.43;3.40;;;;;;;;;;4983920;28;20711;-79
2024/03/29 04:07:24;;;;;;;13.95;2.65;;;;;;;;;;4991613;28;20033;-80
2024/03/29 04:09:53;;;;;;;15.60;3.13;;;;;;;;;;4983541;28;20119;-79
2024/03/29 04:12:20;;;;;;;16.05;3.00;;;;;;;;;;4982210;28;20157;-80
2024/03/29 04:14:46;;;;;;;12.25;3.20;;;;;;;;;;4983008;28;20088;-79
2024/03/29 04:17:12;;;;;;;;;;;;;;;;;;4988227;28;20052;-79
2024/03/29 04:19:39;;;;;;;11.57;2.63;;;;;;;;;;4978773;28;19921;-80
2024/03/29 04:22:05;;;;;;;13.63;2.97;;;;;;;;;;4996612;28;20029;-79
2024/03/29 04:24:32;;;;;;;14.13;3.40;;;;;;;;;;4984609;28;20072;-78
2024/03/29 04:26:59;;;;;;;17.20;3.20;;;;;;;;;;4994490;28;20530;-78
2024/03/29 04:29:25;;;;;;;12.23;2.85;;;;;;;;;;5000381;28;20030;-79
2024/03/29 04:31:52;;;;;;;13.32;2.83;;;;;;;;;;4989943;28;21351;-79
2024/03/29 04:34:20;;;;;;;14.50;3.60;;;;;;;;;;4987914;28;20042;-79
2024/03/29 04:36:47;;;;;;;14.75;2.70;;;;;;;;;;4985392;28;20032;-79
2024/03/29 04:39:13;;;;;;;13.35;3.08;;;;;;;;;;4984948;28;20041;-78
2024/03/29 04:41:39;;;;;;;;;;;;;;;;;;4981759;28;20025;-79
2024/03/29 04:44:08;;;;;;;13.50;3.33;;;;;;;;;;4985753;28;19917;-79
2024/03/29 04:46:35;;;;;;;11.48;2.65;;;;;;;;;;4981733;28;20571;-79
2024/03/29 04:49:02;;;;;;;13.43;2.80;;;;;;;;;;4987652;28;20026;-79
2024/03/29 04:51:30;;;;;;;15.32;3.00;;;;;;;;;;4987211;28;20037;-79
2024/03/29 04:53:56;;;;;;;15.95;3.13;;;;;;;;;;4982380;28;20790;-79
2024/03/29 04:56:23;;;;;;;14.82;2.72;;;;;;;;;;4984792;28;20615;-79
2024/03/29 04:58:50;;;;;;;13.75;2.53;;;;;;;;;;4979291;28;20038;-79
2024/03/29 05:01:17;;;;;;;15.20;2.95;;;;;;;;;;4983303;28;20045;-79
2024/03/29 05:03:43;;;;;;;15.60;2.97;;;;;;;;;;4981375;28;20128;-80
2024/03/29 05:06:12;;;;;;;12.70;2.85;;;;;;;;;;4982977;28;20068;-79
2024/03/29 05:08:38;;;;;;;15.13;3.30;;;;;;;;;;4980354;28;20088;-79
2024/03/29 05:11:07;;;;;;;14.88;2.92;;;;;;;;;;4989719;28;20041;-79
2024/03/29 05:13:34;;;;;;;10.85;2.75;;;;;;;;;;4983538;28;20026;-80
2024/03/29 05:16:00;;;;;;;14.10;3.03;;;;;;;;;;4987535;28;20539;-79
2024/03/29 05:18:27;;;;;;;;;;;;;;;;;;4985919;28;20026;-79
2024/03/29 05:20:54;;;;;;;11.70;2.63;;;;;;;;;;4988835;28;19918;-79
2024/03/29 05:23:21;;;;;;;14.07;2.63;;;;;;;;;;4979854;28;20084;-79
2024/03/29 05:25:49;;;;;;;14.10;3.00;;;;;;;;;;4986066;28;20033;-79
2024/03/29 05:28:15;;;;;;;14.23;3.00;;;;;;;;;;4990771;28;20736;-79
2024/03/29 05:30:43;;;;;;;19.77;3.92;;;;;;;;;;4982321;28;20107;-80
2024/03/29 05:33:10;;;;;;;17.58;3.83;;;;;;;;;;4985671;28;20060;-79
2024/03/29 05:35:36;;;;;;;;;;;;;;;;;;4983459;28;20033;-80
2024/03/29 05:38:03;;;;;;;13.02;3.25;;;;;;;;;;4989839;28;20061;-80
2024/03/29 05:40:29;;;;;;;17.08;3.65;;;;;;;;;;4983817;28;20088;-78
2024/03/29 05:42:57;;;;;;;12.48;2.70;;;;;;;;;;4980998;28;20044;-78
2024/03/29 05:45:32;;;;;;;11.85;2.88;;;;;;;;;;4987639;28;20082;-78
2024/03/29 05:47:59;;;;;;;15.57;3.10;;;;;;;;;;4989171;28;20144;-79
2024/03/29 05:50:26;;;;;;;16.08;2.70;;;;;;;;;;4970920;28;20659;-78
2024/03/29 05:52:53;;;;;;;14.02;3.08;;;;;;;;;;4984089;28;21094;-80
2024/03/29 05:55:20;;;;;;;15.18;3.15;;;;;;;;;;4991503;28;20057;-78
2024/03/29 05:57:46;;;;;;;15.88;2.80;;;;;;;;;;4983134;28;20021;-78
2024/03/29 06:00:14;;;;;;;14.63;2.83;;;;;;;;;;4983910;28;20022;-80
2024/03/29 06:02:40;;;;;;;15.75;3.05;;;;;;;;;;4982389;28;20042;-80
2024/03/29 06:05:08;;;;;;;16.83;3.42;;;;;;;;;;4983547;28;20060;-79
2024/03/29 06:07:36;;;;;;;11.93;2.58;;;;;;;;;;4978967;28;20034;-79
2024/03/29 06:10:04;;;;;;;12.32;3.00;;;;;;;;;;4988129;28;20018;-79
2024/03/29 06:12:31;;;;;;;14.60;3.20;;;;;;;;;;4988086;28;20064;-79
2024/03/29 06:17:42;;;;;;;14.65;2.83;;;;;;;;;;4979641;28;20069;-78
2024/03/29 06:20:08;;;;;;;;;;;;;;;;;;4986097;28;20060;-79
2024/03/29 06:22:35;;;;;;;13.98;2.92;;;;;;;;;;4981705;28;20016;-79
2024/03/29 06:25:09;;;;;;;12.40;2.58;;;;;;;;;;4981647;28;20040;-78
2024/03/29 06:27:35;;;;;;;13.13;2.97;;;;;;;;;;4983864;28;20527;-81
2024/03/29 06:30:02;;;;;;;14.55;3.17;;;;;;;;;;4983486;28;20698;-79
2024/03/29 06:32:30;;;;;;;10.02;2.42;;;;;;;;;;4985096;28;20057;-79
2024/03/29 06:34:56;;;;;;;14.05;2.78;;;;;;;;;;4979882;28;20523;-79
2024/03/29 06:37:25;;;;;;;15.15;3.42;;;;;;;;;;4984242;28;20080;-79
2024/03/29 06:39:52;;;;;;;12.68;2.88;;;;;;;;;;4979229;28;20862;-78
2024/03/29 06:42:18;;;;;;;15.00;3.03;;;;;;;;;;4983737;28;20171;-79
2024/03/29 06:44:46;;;;;;;13.00;3.70;;;;;;;;;;4982078;28;20029;-79
2024/03/29 06:47:13;;;;;;;17.00;4.20;;;;;;;;;;4986425;28;20551;-78
2024/03/29 06:49:41;;;;;;;15.57;3.97;;;;;;;;;;4980552;28;20064;-79
2024/03/29 06:52:10;;;;;;;12.40;3.88;;;;;;;;;;4979385;28;20033;-79
2024/03/29 06:54:36;;;;;;;14.73;3.85;;;;;;;;;;4980048;28;20057;-80
2024/03/29 06:57:02;;;;;;;;;;;;;;;;;;4975089;28;20209;-79
2024/03/29 06:59:29;;;;;;;15.52;3.63;;;;;;;;;;4982607;28;19913;-79
2024/03/29 07:01:55;;;;;;;17.27;3.35;;;;;;;;;;4978285;28;20092;-78
2024/03/29 07:04:21;;;;;;;;;;;;;;;;;;4982872;28;20042;-78
2024/03/29 07:06:50;;;;;;;12.50;3.03;;;;;;;;;;4979580;28;19924;-78
2024/03/29 07:09:16;;;;;;;11.63;3.17;;;;;;;;;;4980999;28;20057;-78
2024/03/29 07:11:43;;;;;;;13.93;3.28;;;;;;;;;;4979009;28;20688;-77
2024/03/29 07:14:09;;;;;;;;;;;;;;;;;;4981382;28;20083;-78
2024/03/29 07:16:36;;;;;;;14.52;3.50;;;;;;;;;;4975203;28;20340;-80
2024/03/29 07:19:02;;;;;;;15.45;3.20;;;;;;;;;;4980246;28;20053;-80
2024/03/29 07:21:28;;;;;;;;;;;;;;;;;;4980143;28;20122;-79
2024/03/29 07:23:56;;;;;;;13.32;3.13;;;;;;;;;;4976832;28;19969;-80
2024/03/29 07:26:25;;;;;;;12.95;3.25;;;;;;;;;;4982462;28;20069;-79
2024/03/29 07:28:52;;;;;;;13.50;3.00;;;;;;;;;;4978013;28;22593;-79
2024/03/29 07:31:20;;;;;;;19.15;6.10;;;;;;;;;;4984406;28;20112;-79
2024/03/29 07:33:46;;;;;;;15.82;5.55;;;;;;;;;;4974171;28;20038;-79
2024/03/29 07:36:16;;;;;;;;;;;;;;;;;;4984107;28;20034;-80
2024/03/29 07:38:43;;;;;;;12.63;3.90;;;;;;;;;;4976408;28;19919;-79
2024/03/29 07:41:10;;;;;;;16.73;3.80;;;;;;;;;;4981138;28;20026;-80
2024/03/29 07:43:41;;;;;;;15.52;3.45;;;;;;;;;;4976731;28;20033;-79
2024/03/29 07:46:09;;;;;;;14.27;3.42;;;;;;;;;;4983460;28;20649;-79
2024/03/29 07:48:37;;;;;;;17.58;2.83;;;;;;;;;;4976722;28;20030;-79
2024/03/29 07:51:03;;;;;;;13.63;3.00;;;;;;;;;;4981299;28;20034;-79
2024/03/29 07:53:32;;;;;;;12.07;3.03;;;;;;;;;;4989094;28;20041;-80
2024/03/29 07:55:58;;;;;;;15.80;3.30;;;;;;;;;;4983536;28;20472;-79
2024/03/29 07:58:24;;;;;;;;;;;;;;;;;;4983145;28;20040;-79
2024/03/29 08:00:53;;;;;;;14.45;3.53;;;;;;;;;;4978921;28;22016;-79
2024/03/29 08:03:22;;;;;;;15.50;3.60;;;;;;;;;;4985673;28;21013;-79
2024/03/29 08:06:17;;;;;;;16.27;3.72;;;;;;;;;;4983936;28;20040;-79
2024/03/29 08:08:45;;;;;;;13.07;3.38;;;;;;;;;;4977168;28;20088;-80
2024/03/29 08:11:11;;;;;;;14.70;3.25;;;;;;;;;;4987427;28;20033;-82
2024/03/29 08:13:39;;;;;;;12.18;2.85;;;;;;;;;;4980443;28;20068;-80
2024/03/29 08:16:05;;;;;;;14.10;3.20;;;;;;;;;;4985284;28;20540;-80
2024/03/29 08:18:33;;;;;;;14.10;3.10;;;;;;;;;;4981535;28;20064;-80
2024/03/29 08:21:01;;;;;;;14.88;3.38;;;;;;;;;;4986186;28;20597;-79
2024/03/29 08:23:29;;;;;;;13.18;3.08;;;;;;;;;;4990291;28;20031;-78
2024/03/29 08:25:55;;;;;;;14.98;3.20;;;;;;;;;;4981566;28;20025;-79
2024/03/29 08:28:24;;;;;;;14.35;3.38;;;;;;;;;;4988413;28;20141;-80
2024/03/29 08:31:00;;;;;;;13.68;3.10;;;;;;;;;;4984907;28;20038;-79
2024/03/29 08:33:26;;;;;;;13.77;3.28;;;;;;;;;;4987778;28;20037;-80
2024/03/29 08:35:54;;;;;;;14.55;3.42;;;;;;;;;;4982865;28;20141;-80
2024/03/29 08:38:23;;;;;;;14.13;3.30;;;;;;;;;;4986060;28;20608;-79
2024/03/29 08:40:49;;;;;;;17.80;3.67;;;;;;;;;;4984014;28;20026;-79
2024/03/29 08:43:20;;;;;;;10.65;3.30;;;;;;;;;;4987147;28;20022;-79
2024/03/29 08:45:46;;;;;;;13.45;3.47;;;;;;;;;;4983692;28;20021;-80
2024/03/29 08:48:13;;;;;;;18.13;3.92;;;;;;;;;;4986598;28;20080;-79
2024/03/29 08:50:39;;;;;;;15.77;3.10;;;;;;;;;;4983016;28;20033;-80
2024/03/29 08:53:06;;;;;;;10.60;2.92;;;;;;;;;;4985344;28;20033;-80
2024/03/29 08:55:33;;;;;;;18.42;4.00;;;;;;;;;;4988299;28;20032;-80
2024/03/29 08:58:00;;;;;;;17.55;3.55;;;;;;;;;;4986244;28;20018;-80
2024/03/29 09:00:31;;;;;;;12.73;3.05;;;;;;;;;;4989895;28;20215;-82
2024/03/29 09:02:57;;;;;;;13.23;3.83;;;;;;;;;;4984616;28;20026;-80
2024/03/29 09:05:24;;;;;;;14.45;3.65;;;;;;;;;;4988342;28;20025;-79
2024/03/29 09:07:51;;;;;;;13.93;3.50;;;;;;;;;;4984238;28;20052;-79
2024/03/29 09:10:19;;;;;;;12.00;2.80;;;;;;;;;;4984114;28;20030;-79
2024/03/29 09:12:45;;;;;;;18.38;3.38;;;;;;;;;;4980812;28;20045;-79
2024/03/29 09:15:16;;;;;;;11.45;3.05;;;;;;;;;;4986823;28;20026;-80
2024/03/29 09:17:47;;;;;;;12.55;2.28;;;;;;;;;;4982972;28;20029;-80
2024/03/29 09:20:14;;;;;;;12.88;2.00;;;;;;;;;;4985501;28;20040;-80
2024/03/29 09:22:40;;;;;;;11.35;2.40;;;;;;;;;;4982722;28;20121;-79
2024/03/29 09:25:09;;;;;;;16.23;2.78;;;;;;;;;;4987766;28;20032;-79
2024/03/29 09:27:36;;;;;;;12.45;2.65;;;;;;;;;;4981669;28;20033;-80
2024/03/29 09:30:09;;;;;;;11.57;2.60;;;;;;;;;;4986002;28;20092;-79
2024/03/29 09:32:35;;;;;;;17.13;2.58;;;;;;;;;;4979487;28;20645;-80
2024/03/29 09:35:01;;;;;;;13.55;2.80;;;;;;;;;;4987363;28;20177;-79
2024/03/29 09:37:28;;;;;;;12.25;2.08;;;;;;;;;;4983670;28;20160;-80
2024/03/29 09:39:54;;;;;;;11.18;2.42;;;;;;;;;;4980577;28;20484;-79
2024/03/29 09:42:24;;;;;;;10.52;2.35;;;;;;;;;;4983614;28;20090;-80
2024/03/29 09:44:52;;;;;;;11.93;2.80;;;;;;;;;;4972583;28;20038;-81
2024/03/29 09:47:20;;;;;;;10.93;2.80;;;;;;;;;;4992773;28;20038;-81
2024/03/29 09:49:49;;;;;;;10.65;2.88;;;;;;;;;;4994527;28;20046;-84
2024/03/29 09:52:16;;;;;;;11.60;2.97;;;;;;;;;;5002326;28;20456;-88
2024/03/29 09:54:44;;;;;;;8.30;2.03;;;;;;;;;;4996170;28;20037;-80
2024/03/29 09:57:10;;;;;;;8.77;1.70;;;;;;;;;;4998378;28;20029;-81
2024/03/29 09:59:39;;;;;;;8.13;2.00;;;;;;;;;;4995869;28;20569;-81
2024/03/29 10:02:13;;;;;;;9.70;1.80;;;;;;;;;;4999103;28;20022;-81
2024/03/29 10:04:40;;;;;;;12.55;2.72;;;;;;;;;;4995539;28;20045;-88
2024/03/29 10:07:08;;;;;;;11.23;2.42;;;;;;;;;;4997882;28;20037;-81
2024/03/29 10:09:37;;;;;;;16.27;2.30;;;;;;;;;;4996051;28;20034;-80
2024/03/29 10:12:05;;;;;;;11.05;2.53;;;;;;;;;;4995527;28;20029;-80
2024/03/29 10:14:48;;;;;;;12.75;2.40;;;;;;;;;;4997988;28;20453;-80
2024/03/29 10:17:15;;;;;;;11.68;2.28;;;;;;;;;;4997289;28;20157;-81
2024/03/29 10:19:43;;;;;;;13.38;2.45;;;;;;;;;;4994647;28;20562;-80
2024/03/29 10:22:09;;;;;;;17.48;2.60;;;;;;;;;;4997448;28;20053;-80
2024/03/29 10:24:37;;;;;;;24.73;3.38;;;;;;;;;;4996458;28;20029;-80
2024/03/29 10:27:14;;;;;;;22.48;3.40;;;;;;;;;;4996240;28;20555;-80
2024/03/29 10:29:42;;;;;;;24.58;4.43;;;;;;;;;;4978114;28;20064;-79
2024/03/29 10:32:09;;;;;;;20.58;3.35;;;;;;;;;;4995029;28;20033;-80
2024/03/29 10:34:36;;;;;;;28.58;3.58;;;;;;;;;;4988049;28;20033;-80
2024/03/29 10:37:04;;;;;;;21.27;3.65;;;;;;;;;;4995044;28;20797;-80
2024/03/29 10:39:33;;;;;;;27.40;4.07;;;;;;;;;;5000182;28;20375;-80
2024/03/29 10:42:05;;;;;;;27.20;3.85;;;;;;;;;;4989726;28;20036;-80
2024/03/29 10:44:35;;;;;;;24.27;4.80;;;;;;;;;;4988958;28;20701;-79
2024/03/29 10:47:02;;;;;;;29.80;5.72;;;;;;;;;;4987937;28;20040;-79
2024/03/29 10:49:30;;;;;;;41.15;5.90;;;;;;;;;;4991491;28;20056;-80
2024/03/29 10:51:59;;;;;;;36.00;4.93;;;;;;;;;;4986675;28;20033;-79
2024/03/29 10:54:26;;;;;;;32.17;5.53;;;;;;;;;;4988137;28;20037;-80
2024/03/29 10:57:00;;;;;;;50.58;6.95;;;;;;;;;;4984152;28;20124;-80
2024/03/29 10:59:43;;;;;;;37.58;6.78;;;;;;;;;;4997638;28;20040;-79
2024/03/29 11:02:13;;;;;;;44.45;7.40;;;;;;;;;;4997326;28;20049;-81
2024/03/29 11:04:40;;;;;;;41.00;7.05;;;;;;;;;;4988518;28;20040;-78
2024/03/29 11:07:16;;;;;;;42.13;7.13;;;;;;;;;;4992768;28;20018;-78
2024/03/29 11:09:43;;;;;;;38.13;6.95;;;;;;;;;;4994569;28;20037;-81
2024/03/29 11:12:11;;;;;;;41.88;8.05;;;;;;;;;;4989114;28;20021;-78
2024/03/29 11:14:47;;;;;;;39.40;7.97;;;;;;;;;;4990460;28;20044;-77
2024/03/29 11:17:16;;;;;;;43.75;7.78;;;;;;;;;;4996096;28;20080;-80
2024/03/29 11:19:42;;;;;;;45.40;7.88;;;;;;;;;;4993634;28;20044;-77
2024/03/29 11:22:08;;;;;;;53.40;9.70;;;;;;;;;;4990895;28;20022;-81
2024/03/29 11:24:40;;;;;;;56.70;9.93;;;;;;;;;;4989982;28;20084;-78
2024/03/29 11:27:10;;;;;;;53.70;9.52;;;;;;;;;;4988211;28;20136;-78
2024/03/29 11:29:45;;;;;;;51.92;9.85;;;;;;;;;;4984309;28;20033;-78
2024/03/29 11:32:11;;;;;;;49.83;10.20;;;;;;;;;;4985915;28;20044;-80
2024/03/29 11:34:44;;;;;;;51.63;9.88;;;;;;;;;;4980038;28;20037;-76
2024/03/29 11:37:12;;;;;;;55.42;8.77;;;;;;;;;;4987365;28;20081;-80
2024/03/29 11:39:40;;;;;;;48.65;8.10;;;;;;;;;;4979387;28;20116;-81
2024/03/29 11:42:06;;;;;;;43.65;7.53;;;;;;;;;;4983740;28;20022;-81
2024/03/29 11:44:34;;;;;;;59.95;8.18;;;;;;;;;;4985405;28;20029;-81
2024/03/29 11:47:00;;;;;;;58.83;10.00;;;;;;;;;;4986807;28;20042;-80
2024/03/29 11:49:26;;;;;;;47.40;9.18;;;;;;;;;;4988314;28;20030;-78
2024/03/29 11:52:03;;;;;;;49.72;8.73;;;;;;;;;;4986805;28;20822;-79
2024/03/29 11:54:38;;;;;;;49.10;8.75;;;;;;;;;;4989155;28;20527;-79
2024/03/29 11:57:04;;;;;;;48.75;8.65;;;;;;;;;;4987854;28;20033;-78
2024/03/29 11:59:31;;;;;;;46.95;8.52;;;;;;;;;;5004526;28;20037;-79
2024/03/29 12:01:57;;;;;;;53.08;9.52;;;;;;;;;;4984456;28;20048;-79
2024/03/29 12:04:24;;;;;;;51.42;8.85;;;;;;;;;;4987973;28;20638;-78
2024/03/29 12:06:50;;;;;;;45.50;9.18;;;;;;;;;;4985902;28;20645;-79
2024/03/29 12:09:17;;;;;;;51.92;9.35;;;;;;;;;;4989261;28;20040;-80
2024/03/29 12:11:49;;;;;;;64.13;10.90;;;;;;;;;;4987575;28;20057;-80
2024/03/29 12:14:17;;;;;;;65.20;10.05;;;;;;;;;;4988866;28;20053;-80
2024/03/29 12:16:47;;;;;;;48.25;9.38;;;;;;;;;;4984342;28;20033;-79
2024/03/29 12:19:23;;;;;;;57.65;9.70;;;;;;;;;;4989756;28;20033;-79
2024/03/29 12:21:50;;;;;;;60.17;10.18;;;;;;;;;;4985169;28;20066;-78
2024/03/29 12:24:17;;;;;;;59.75;10.27;;;;;;;;;;4988920;28;20022;-80
2024/03/29 12:26:44;;;;;;;70.85;11.70;;;;;;;;;;4981699;28;20033;-80
2024/03/29 12:29:11;;;;;;;71.55;11.45;;;;;;;;;;4989337;28;20054;-80
2024/03/29 12:31:39;;;;;;;68.28;12.32;;;;;;;;;;4987115;28;20211;-81
2024/03/29 12:34:07;;;;;;;74.10;12.80;;;;;;;;;;4988408;28;20037;-78
2024/03/29 12:36:34;;;;;;;67.15;11.52;;;;;;;;;;4984262;28;20049;-80
2024/03/29 12:39:03;;;;;;;65.40;11.07;;;;;;;;;;4987608;28;20025;-79
2024/03/29 12:41:34;;;;;;;72.10;11.23;;;;;;;;;;4987359;28;20037;-80
2024/03/29 12:44:00;;;;;;;62.20;10.82;;;;;;;;;;4985495;28;20038;-79
2024/03/29 12:46:27;;;;;;;75.00;10.77;;;;;;;;;;4990818;28;20448;-81
2024/03/29 12:49:00;;;;;;;70.50;11.05;;;;;;;;;;4983700;28;20639;-79
2024/03/29 12:51:30;;;;;;;67.65;10.75;;;;;;;;;;4988792;28;20033;-79
2024/03/29 12:54:01;;;;;;;63.15;10.45;;;;;;;;;;4984075;28;20025;-80
2024/03/29 12:56:29;;;;;;;61.22;10.38;;;;;;;;;;4974337;28;20048;-79
2024/03/29 12:58:55;;;;;;;64.22;11.35;;;;;;;;;;4988332;28;20029;-79
2024/03/29 13:01:21;;;;;;;55.70;9.68;;;;;;;;;;4991878;28;20017;-79
2024/03/29 13:03:49;;;;;;;60.35;9.93;;;;;;;;;;4987372;28;20111;-80
2024/03/29 13:06:15;;;;;;;55.03;9.07;;;;;;;;;;4999295;28;20021;-82
2024/03/29 13:08:42;;;;;;;52.50;9.73;;;;;;;;;;4990463;28;20030;-80
2024/03/29 13:11:10;;;;;;;57.35;8.77;;;;;;;;;;4992150;28;20033;-80
2024/03/29 13:13:36;;;;;;;47.85;8.18;;;;;;;;;;4989986;28;20030;-80
2024/03/29 13:16:03;;;;;;;56.70;9.43;;;;;;;;;;4993299;28;20084;-79
2024/03/29 13:18:29;;;;;;;58.15;10.48;;;;;;;;;;4992226;28;20091;-79
2024/03/29 13:20:59;;;;;;;59.55;12.80;;;;;;;;;;4992156;28;20471;-79
2024/03/29 13:23:26;;;;;;;56.50;12.43;;;;;;;;;;4989107;28;20065;-79
2024/03/29 13:25:56;;;;;;;56.75;10.70;;;;;;;;;;4988552;28;20038;-80
2024/03/29 13:28:22;;;;;;;51.00;11.70;;;;;;;;;;4989348;28;20036;-78
2024/03/29 13:30:51;;;;;;;52.13;9.70;;;;;;;;;;4985686;28;20044;-81
2024/03/29 13:33:18;;;;;;;47.05;9.32;;;;;;;;;;4989772;28;20037;-80
2024/03/29 13:35:45;;;;;;;45.08;7.43;;;;;;;;;;4990084;28;20562;-80
2024/03/29 13:38:12;;;;;;;54.85;7.88;;;;;;;;;;4991785;28;20390;-80
2024/03/29 13:40:40;;;;;;;56.30;9.52;;;;;;;;;;4985472;28;20137;-80
2024/03/29 13:43:07;;;;;;;57.08;8.82;;;;;;;;;;4992694;28;20032;-81
2024/03/29 13:45:34;;;;;;;48.28;8.48;;;;;;;;;;4993359;28;20577;-80
2024/03/29 13:48:00;;;;;;;42.63;6.63;;;;;;;;;;5008148;28;20068;-80
2024/03/29 13:50:26;;;;;;;45.97;8.05;;;;;;;;;;4994699;28;20436;-79
2024/03/29 13:52:54;;;;;;;46.15;7.75;;;;;;;;;;4991625;28;20119;-80
2024/03/29 13:55:21;;;;;;;46.58;8.40;;;;;;;;;;4997789;28;20021;-79
2024/03/29 13:57:47;;;;;;;52.67;8.50;;;;;;;;;;4994580;28;20105;-79
2024/03/29 14:00:14;;;;;;;39.03;7.18;;;;;;;;;;4996059;28;20034;-81
2024/03/29 14:02:41;;;;;;;44.60;6.95;;;;;;;;;;4993116;28;20121;-80
2024/03/29 14:05:09;;;;;;;47.80;6.72;;;;;;;;;;4995225;28;20606;-81
2024/03/29 14:07:35;;;;;;;51.22;8.18;;;;;;;;;;4992247;28;20028;-80
2024/03/29 14:10:04;;;;;;;43.95;8.07;;;;;;;;;;4995063;28;20480;-80
2024/03/29 14:12:30;;;;;;;56.88;7.85;;;;;;;;;;4993552;28;20038;-80
2024/03/29 14:14:56;;;;;;;43.25;7.53;;;;;;;;;;5008514;28;20057;-81
2024/03/29 14:17:23;;;;;;;48.17;7.15;;;;;;;;;;4992067;28;20192;-80
2024/03/29 14:19:51;;;;;;;45.15;7.82;;;;;;;;;;4993594;28;20053;-80
2024/03/29 14:22:19;;;;;;;41.42;7.88;;;;;;;;;;4994771;28;20022;-80
2024/03/29 14:24:47;;;;;;;46.05;7.35;;;;;;;;;;4992364;28;20492;-79
2024/03/29 14:27:14;;;;;;;44.15;7.75;;;;;;;;;;4993977;28;20124;-80
2024/03/29 14:29:40;;;;;;;48.10;7.80;;;;;;;;;;4989996;28;20064;-80
2024/03/29 14:32:06;;;;;;;47.60;6.63;;;;;;;;;;4995681;28;20050;-80
2024/03/29 14:34:37;;;;;;;48.83;6.95;;;;;;;;;;4993190;28;20462;-81
2024/03/29 14:37:03;;;;;;;38.80;6.43;;;;;;;;;;4997687;28;20116;-79
2024/03/29 14:39:31;;;;;;;38.53;6.90;;;;;;;;;;4994813;28;20036;-80
2024/03/29 14:42:02;;;;;;;39.50;6.78;;;;;;;;;;4996367;28;20057;-79
2024/03/29 14:44:29;;;;;;;42.92;7.07;;;;;;;;;;4993311;28;20217;-80